Time;durP1;ratioP1;P1;durP2;ratioP2;P2;SDS_P1;SDS_P2;PMS_P1;PMS_P2;Temp;Humidity;BMP_temperature;BMP_pressure;BME280_temperature;BME280_humidity;BME280_pressure;Samples;Min_cycle;Max_cycle;Signal;HPM_P1;HPM_P2
2022/10/04 00:00:12;;;;;;;;;;;;;;;;;;12584821;28;20284;-79
2022/10/04 00:06:14;;;;;;;;;;;;;;;;;;12584750;28;19915;-79
2022/10/04 00:12:16;;;;;;;;;;;;;;;;;;12584448;28;19908;-79
2022/10/04 00:18:20;;;;;;;;;;;;;;;;;;12583913;28;19965;-79
2022/10/04 00:24:22;;;;;;;;;;;;;;;;;;12584455;28;20198;-79
2022/10/04 00:30:23;;;;;;;;;;;;;;;;;;12610179;28;19919;-78
2022/10/04 00:36:25;;;;;;;;;;;;;;;;;;12594838;28;20308;-79
2022/10/04 00:42:26;;;;;;;;;;;;;;;;;;12596736;28;19909;-79
2022/10/04 00:48:28;;;;;;;;;;;;;;;;;;12603293;28;20289;-79
2022/10/04 00:54:30;;;;;;;;;;;;;;;;;;12591304;28;20360;-80
2022/10/04 01:00:32;;;;;;;;;;;;;;;;;;12591522;28;19916;-79
2022/10/04 01:06:34;;;;;;;;;;;;;;;;;;12594148;28;20281;-78
2022/10/04 01:12:35;;;;;;;;;;;;;;;;;;12573407;28;19909;-78
2022/10/04 01:18:37;;;;;;;;;;;;;;;;;;12573812;28;20087;-78
2022/10/04 01:24:38;;;;;;;;;;;;;;;;;;12578123;28;20291;-79
2022/10/04 01:30:40;;;;;;;;;;;;;;;;;;12593261;28;19919;-79
2022/10/04 01:36:43;;;;;;;;;;;;;;;;;;12600246;28;19919;-78
2022/10/04 01:42:45;;;;;;;;;;;;;;;;;;12595222;28;19908;-79
2022/10/04 01:48:46;;;;;;;;;;;;;;;;;;12594105;28;19920;-79
2022/10/04 01:54:48;;;;;;;;;;;;;;;;;;12592058;28;19927;-79
2022/10/04 02:00:50;;;;;;;;;;;;;;;;;;12598836;28;19920;-80
2022/10/04 02:06:55;;;;;;;;;;;;;;;;;;12593600;28;19919;-79
2022/10/04 02:12:56;;;;;;;;;;;;;;;;;;12591713;28;20287;-79
2022/10/04 02:18:58;;;;;;;;;;;;;;;;;;12573713;28;19931;-78
2022/10/04 02:24:59;;;;;;;;;;;;;;;;;;12599067;28;19913;-79
2022/10/04 02:37:22;;;;;;;;;;;;;;;;;;12592773;28;19916;-78
2022/10/04 02:43:23;;;;;;;;;;;;;;;;;;12591557;28;20323;-79
2022/10/04 02:49:25;;;;;;;;;;;;;;;;;;12590093;28;19921;-79
2022/10/04 02:55:26;;;;;;;;;;;;;;;;;;12588816;28;19924;-79
2022/10/04 03:01:28;;;;;;;;;;;;;;;;;;12590526;28;19920;-78
2022/10/04 03:07:30;;;;;;;;;;;;;;;;;;12588470;28;20303;-78
2022/10/04 03:13:31;;;;;;;;;;;;;;;;;;12590352;28;19912;-79
2022/10/04 03:19:33;;;;;;;;;;;;;;;;;;12593995;28;19924;-79
2022/10/04 03:25:35;;;;;;;;;;;;;;;;;;12573999;28;19909;-77
2022/10/04 03:31:38;;;;;;;;;;;;;;;;;;12588270;28;19922;-79
2022/10/04 03:37:40;;;;;;;;;;;;;;;;;;12589608;28;19923;-79
2022/10/04 03:43:42;;;;;;;;;;;;;;;;;;12588061;28;19909;-78
2022/10/04 03:49:44;;;;;;;;;;;;;;;;;;12572133;28;19920;-79
2022/10/04 03:55:45;;;;;;;;;;;;;;;;;;12595137;28;19916;-77
2022/10/04 04:01:47;;;;;;;;;;;;;;;;;;12581543;28;20198;-79
2022/10/04 04:07:48;;;;;;;;;;;;;;;;;;12606523;28;19971;-79
2022/10/04 04:13:50;;;;;;;;;;;;;;;;;;12615197;28;19931;-79
2022/10/04 04:19:52;;;;;;;;;;;;;;;;;;12604799;28;19925;-79
2022/10/04 04:25:53;;;;;;;;;;;;;;;;;;12605138;28;19915;-79
2022/10/04 04:31:55;;;;;;;;;;;;;;;;;;12603879;28;19916;-80
2022/10/04 04:37:56;;;;;;;;;;;;;;;;;;12586787;28;19917;-78
2022/10/04 04:43:58;;;;;;;;;;;;;;;;;;12605573;28;19928;-78
2022/10/04 04:50:00;;;;;;;;;;;;;;;;;;12587003;28;19920;-79
2022/10/04 04:56:01;;;;;;;;;;;;;;;;;;12613414;28;19915;-79
2022/10/04 05:02:03;;;;;;;;;;;;;;;;;;12609260;28;20357;-80
2022/10/04 05:08:05;;;;;;;;;;;;;;;;;;12611729;28;19935;-80
2022/10/04 05:14:06;;;;;;;;;;;;;;;;;;12584674;28;19912;-79
2022/10/04 05:20:09;;;;;;;;;;;;;;;;;;12593448;28;20333;-78
2022/10/04 05:26:10;;;;;;;;;;;;;;;;;;12593675;28;19908;-79
2022/10/04 05:32:12;;;;;;;;;;;;;;;;;;12593689;28;20260;-78
2022/10/04 05:38:13;;;;;;;;;;;;;;;;;;12592423;28;20376;-79
2022/10/04 05:44:15;;;;;;;;;;;;;;;;;;12572314;28;19930;-77
2022/10/04 05:50:17;;;;;;;;;;;;;;;;;;12591564;28;19920;-78
2022/10/04 05:56:18;;;;;;;;;;;;;;;;;;12575551;28;20348;-78
2022/10/04 06:02:20;;;;;;;;;;;;;;;;;;12605376;28;19919;-78
2022/10/04 06:08:21;;;;;;;;;;;;;;;;;;12579803;28;19917;-78
2022/10/04 06:14:23;;;;;;;;;;;;;;;;;;12596965;28;19916;-79
2022/10/04 06:20:25;;;;;;;;;;;;;;;;;;12607592;28;19912;-79
2022/10/04 06:26:27;;;;;;;;;;;;;;;;;;12587671;28;20345;-78
2022/10/04 06:32:28;;;;;;;;;;;;;;;;;;12610407;28;19915;-79
2022/10/04 06:38:30;;;;;;;;;;;;;;;;;;12617507;28;20377;-79
2022/10/04 06:44:32;;;;;;;;;;;;;;;;;;12615272;28;19930;-79
2022/10/04 06:50:34;;;;;;;;;;;;;;;;;;12610256;28;19953;-80
2022/10/04 06:56:35;;;;;;;;;;;;;;;;;;12628616;28;19931;-79
2022/10/04 07:02:37;;;;;;;;;;;;;;;;;;12619287;28;19908;-79
2022/10/04 07:08:38;;;;;;;;;;;;;;;;;;12605075;28;19987;-77
2022/10/04 07:14:40;;;;;;;;;;;;;;;;;;12609150;28;19923;-79
2022/10/04 07:20:42;;;;;;;;;;;;;;;;;;12585853;28;19939;-79
2022/10/04 07:26:43;;;;;;;;;;;;;;;;;;12611614;28;19931;-78
2022/10/04 07:32:45;;;;;;;;;;;;;;;;;;12600377;28;19908;-78
2022/10/04 07:38:46;;;;;;;;;;;;;;;;;;12613403;28;19939;-79
2022/10/04 07:44:48;;;;;;;;;;;;;;;;;;12600498;28;19908;-79
2022/10/04 07:50:50;;;;;;;;;;;;;;;;;;12601644;28;19927;-78
2022/10/04 07:56:51;;;;;;;;;;;;;;;;;;12571058;28;20307;-78
2022/10/04 08:02:53;;;;;;;;;;;;;;;;;;12613643;28;19908;-78
2022/10/04 08:08:55;;;;;;;;;;;;;;;;;;12568580;28;19908;-78
2022/10/04 08:14:57;;;;;;;;;;;;;;;;;;12578286;28;19931;-78
2022/10/04 08:20:58;;;;;;;;;;;;;;;;;;12605122;28;19919;-80
2022/10/04 08:27:00;;;;;;;;;;;;;;;;;;12569540;28;20268;-78
2022/10/04 08:33:05;;;;;;;;;;;;;;;;;;12606370;28;20388;-79
2022/10/04 08:39:07;;;;;;;;;;;;;;;;;;12581876;28;19936;-79
2022/10/04 08:45:09;;;;;;;;;;;;;;;;;;12591106;28;20237;-78
2022/10/04 08:51:11;;;;;;;;;;;;;;;;;;12603030;28;20522;-78
2022/10/04 08:57:14;;;;;;;;;;;;;;;;;;12610624;28;20007;-79
2022/10/04 09:03:15;;;;;;;;;;;;;;;;;;12564663;28;19908;-78
2022/10/04 09:09:17;;;;;;;;;;;;;;;;;;12583263;28;19923;-80
2022/10/04 09:15:19;;;;;;;;;;;;;;;;;;12598282;28;19958;-79
2022/10/04 09:21:21;;;;;;;;;;;;;;;;;;12598388;28;19913;-78
2022/10/04 09:27:23;;;;;;;;;;;;;;;;;;12588786;28;19931;-78
2022/10/04 09:33:24;;;;;;;;;;;;;;;;;;12617862;28;19908;-80
2022/10/04 09:39:26;;;;;;;;;;;;;;;;;;12615766;28;20373;-80
2022/10/04 09:45:28;;;;;;;;;;;;;;;;;;12590753;28;19909;-80
2022/10/04 09:51:30;;;;;;;;;;;;;;;;;;12611948;28;19920;-79
2022/10/04 09:57:32;;;;;;;;;;;;;;;;;;12590178;28;20332;-79
2022/10/04 10:03:34;;;;;;;;;;;;;;;;;;12608141;28;19923;-79
2022/10/04 10:15:58;;;;;;;;;;;;;;;;;;12600056;28;19924;-79
2022/10/04 10:21:59;;;;;;;;;;;;;;;;;;12591667;28;19923;-79
2022/10/04 10:28:01;;;;;;;;;;;;;;;;;;12624703;28;19930;-79
2022/10/04 10:34:03;;;;;;;;;;;;;;;;;;12633853;28;19915;-79
2022/10/04 10:40:05;;;;;;;;;;;;;;;;;;12614172;28;20288;-79
2022/10/04 10:46:06;;;;;;;;;;;;;;;;;;12607731;28;19916;-78
2022/10/04 10:52:08;;;;;;;;;;;;;;;;;;12605536;28;20269;-78
2022/10/04 10:58:10;;;;;;;;;;;;;;;;;;12599437;28;19916;-79
2022/10/04 11:04:13;;;;;;;;;;;;;;;;;;12589259;28;19939;-79
2022/10/04 11:10:14;;;;;;;;;;;;;;;;;;12611824;28;19919;-79
2022/10/04 11:16:16;;;;;;;;;;;;;;;;;;12603355;28;19924;-79
2022/10/04 11:22:18;;;;;;;;;;;;;;;;;;12606156;28;19908;-79
2022/10/04 11:28:20;;;;;;;;;;;;;;;;;;12561053;28;19908;-80
2022/10/04 11:34:22;;;;;;;;;;;;;;;;;;12583557;28;19917;-80
2022/10/04 11:40:23;;;;;;;;;;;;;;;;;;12615280;28;20253;-78
2022/10/04 11:46:25;;;;;;;;;;;;;;;;;;12609698;28;19912;-78
2022/10/04 11:52:27;;;;;;;;;;;;;;;;;;12594229;28;19916;-79
2022/10/04 11:58:29;;;;;;;;;;;;;;;;;;12603994;28;19943;-79
2022/10/04 12:04:30;;;;;;;;;;;;;;;;;;12592397;28;20306;-79
2022/10/04 12:10:32;;;;;;;;;;;;;;;;;;12565537;28;19957;-79
2022/10/04 12:16:33;;;;;;;;;;;;;;;;;;12631405;28;19920;-79
2022/10/04 12:22:35;;;;;;;;;;;;;;;;;;12581554;28;19908;-79
2022/10/04 12:28:37;;;;;;;;;;;;;;;;;;12611977;28;19978;-78
2022/10/04 12:34:38;;;;;;;;;;;;;;;;;;12622334;28;19908;-79
2022/10/04 12:40:40;;;;;;;;;;;;;;;;;;12604920;28;19915;-79
2022/10/04 12:46:41;;;;;;;;;;;;;;;;;;12640494;28;20255;-79
2022/10/04 12:52:43;;;;;;;;;;;;;;;;;;12639635;28;20360;-79
2022/10/04 12:58:44;;;;;;;;;;;;;;;;;;12640826;28;20360;-78
2022/10/04 13:04:45;;;;;;;;;;;;;;;;;;12639130;28;20030;-79
2022/10/04 13:10:47;;;;;;;;;;;;;;;;;;12604432;28;19916;-79
2022/10/04 13:16:49;;;;;;;;;;;;;;;;;;12638405;28;20277;-79
2022/10/04 13:22:51;;;;;;;;;;;;;;;;;;12620130;28;20348;-79
2022/10/04 13:28:53;;;;;;;;;;;;;;;;;;12638665;28;19931;-79
2022/10/04 13:34:55;;;;;;;;;;;;;;;;;;12636293;28;20510;-79
2022/10/04 13:40:57;;;;;;;;;;;;;;;;;;12638134;28;19908;-79
2022/10/04 13:46:59;;;;;;;;;;;;;;;;;;12619891;28;19923;-80
2022/10/04 13:59:22;;;;;;;;;;;;;;;;;;12638071;28;19916;-78
2022/10/04 14:05:23;;;;;;;;;;;;;;;;;;12603466;28;19927;-78
2022/10/04 14:11:25;;;;;;;;;;;;;;;;;;12637826;28;20236;-79
2022/10/04 14:17:27;;;;;;;;;;;;;;;;;;12619173;28;19920;-78
2022/10/04 14:23:29;;;;;;;;;;;;;;;;;;12637138;28;20285;-78
2022/10/04 14:29:30;;;;;;;;;;;;;;;;;;12618374;28;20328;-78
2022/10/04 14:35:32;;;;;;;;;;;;;;;;;;12620212;28;20011;-79
2022/10/04 14:41:33;;;;;;;;;;;;;;;;;;12619260;28;19962;-79
2022/10/04 14:47:35;;;;;;;;;;;;;;;;;;12636594;28;19912;-78
2022/10/04 14:53:37;;;;;;;;;;;;;;;;;;12636362;28;19923;-78
2022/10/04 14:59:38;;;;;;;;;;;;;;;;;;12634970;28;19916;-78
2022/10/04 15:05:42;;;;;;;;;;;;;;;;;;12635087;28;19931;-78
2022/10/04 15:11:44;;;;;;;;;;;;;;;;;;12635376;28;20067;-79
2022/10/04 15:17:45;;;;;;;;;;;;;;;;;;12616705;28;19928;-79
2022/10/04 15:23:48;;;;;;;;;;;;;;;;;;12616457;28;19967;-79
2022/10/04 15:29:49;;;;;;;;;;;;;;;;;;12634301;28;19912;-80
2022/10/04 15:35:51;;;;;;;;;;;;;;;;;;12634861;28;19916;-79
2022/10/04 15:41:52;;;;;;;;;;;;;;;;;;12633839;28;20379;-78
2022/10/04 15:47:54;;;;;;;;;;;;;;;;;;12634300;28;19963;-77
2022/10/04 15:53:58;;;;;;;;;;;;;;;;;;12616671;28;19908;-79
2022/10/04 16:00:00;;;;;;;;;;;;;;;;;;12633843;28;20368;-78
2022/10/04 16:06:01;;;;;;;;;;;;;;;;;;12634158;28;20294;-80
2022/10/04 16:12:03;;;;;;;;;;;;;;;;;;12615146;28;19908;-79
2022/10/04 16:18:04;;;;;;;;;;;;;;;;;;12632538;28;19924;-78
2022/10/04 16:24:06;;;;;;;;;;;;;;;;;;12597545;28;19975;-77
2022/10/04 16:30:07;;;;;;;;;;;;;;;;;;12613329;28;19908;-78
2022/10/04 16:36:30;;;;;;;;;;;;;;;;;;12630367;28;19916;-77
2022/10/04 16:42:32;;;;;;;;;;;;;;;;;;12614913;28;19931;-79
2022/10/04 16:48:33;;;;;;;;;;;;;;;;;;12614465;28;19931;-79
2022/10/04 16:54:35;;;;;;;;;;;;;;;;;;12613781;28;19915;-79
2022/10/04 17:00:37;;;;;;;;;;;;;;;;;;12612844;28;19982;-79
2022/10/04 17:07:09;;;;;;;;;;;;;;;;;;12604580;28;19908;-79
2022/10/04 17:13:10;;;;;;;;;;;;;;;;;;12621444;28;19915;-79
2022/10/04 17:19:12;;;;;;;;;;;;;;;;;;12640734;28;20228;-80
2022/10/04 17:25:13;;;;;;;;;;;;;;;;;;12640015;28;19915;-80
2022/10/04 17:31:15;;;;;;;;;;;;;;;;;;12639998;28;19908;-78
2022/10/04 17:37:21;;;;;;;;;;;;;;;;;;12622100;28;19916;-79
2022/10/04 17:43:22;;;;;;;;;;;;;;;;;;12640126;28;19912;-78
2022/10/04 17:55:44;;;;;;;;;;;;;;;;;;12639249;28;19939;-79
2022/10/04 18:01:46;;;;;;;;;;;;;;;;;;12621348;28;19927;-78
2022/10/04 18:07:48;;;;;;;;;;;;;;;;;;12638673;28;19920;-79
2022/10/04 18:13:49;;;;;;;;;;;;;;;;;;12604048;28;20267;-79
2022/10/04 18:19:53;;;;;;;;;;;;;;;;;;12638402;28;20280;-79
2022/10/04 18:25:55;;;;;;;;;;;;;;;;;;12602558;28;19915;-80
2022/10/04 18:32:00;;;;;;;;;;;;;;;;;;12637554;28;20181;-79
2022/10/04 18:38:01;;;;;;;;;;;;;;;;;;12601714;28;20214;-78
2022/10/04 18:44:03;;;;;;;;;;;;;;;;;;12636007;28;19935;-78
2022/10/04 18:50:05;;;;;;;;;;;;;;;;;;12636159;28;19920;-78
2022/10/04 18:56:07;;;;;;;;;;;;;;;;;;12617079;28;19920;-79
2022/10/04 19:02:09;;;;;;;;;;;;;;;;;;12618087;28;19915;-79
2022/10/04 19:08:10;;;;;;;;;;;;;;;;;;12636688;28;19915;-79
2022/10/04 19:14:13;;;;;;;;;;;;;;;;;;12618930;28;19956;-78
2022/10/04 19:20:14;;;;;;;;;;;;;;;;;;12637548;28;19927;-78
2022/10/04 19:26:18;;;;;;;;;;;;;;;;;;12618915;28;20363;-78
2022/10/04 19:32:20;;;;;;;;;;;;;;;;;;12617065;28;19911;-78
2022/10/04 19:38:22;;;;;;;;;;;;;;;;;;12636297;28;19931;-80
2022/10/04 19:44:24;;;;;;;;;;;;;;;;;;12636808;28;20375;-79
2022/10/04 19:50:25;;;;;;;;;;;;;;;;;;12636277;28;19920;-78
2022/10/04 19:56:28;;;;;;;;;;;;;;;;;;12617995;28;19916;-79
2022/10/04 20:02:29;;;;;;;;;;;;;;;;;;12601012;28;20395;-78
2022/10/04 20:08:31;;;;;;;;;;;;;;;;;;12636104;28;19908;-79
2022/10/04 20:14:32;;;;;;;;;;;;;;;;;;12617474;28;20390;-79
2022/10/04 20:20:34;;;;;;;;;;;;;;;;;;12636193;28;19920;-79
2022/10/04 20:26:50;;;;;;;;;;;;;;;;;;12634846;28;19908;-78
2022/10/04 20:32:52;;;;;;;;;;;;;;;;;;12633239;28;19908;-78
2022/10/04 20:38:54;;;;;;;;;;;;;;;;;;12597759;28;19916;-78
2022/10/04 20:44:55;;;;;;;;;;;;;;;;;;12638012;28;19908;-80
2022/10/04 20:50:57;;;;;;;;;;;;;;;;;;12641831;28;19982;-80
2022/10/04 20:56:59;;;;;;;;;;;;;;;;;;12640959;28;20348;-79
2022/10/04 21:03:00;;;;;;;;;;;;;;;;;;12641662;28;19934;-79
2022/10/04 21:09:02;;;;;;;;;;;;;;;;;;12640861;28;19915;-80
2022/10/04 21:15:04;;;;;;;;;;;;;;;;;;12641129;28;19908;-78
2022/10/04 21:21:06;;;;;;;;;;;;;;;;;;12641347;28;19927;-79
2022/10/04 21:27:08;;;;;;;;;;;;;;;;;;12621696;28;19931;-79
2022/10/04 21:33:09;;;;;;;;;;;;;;;;;;12639921;28;20364;-78
2022/10/04 21:39:11;;;;;;;;;;;;;;;;;;12638652;28;19915;-79
2022/10/04 21:45:13;;;;;;;;;;;;;;;;;;12639282;28;19908;-79
2022/10/04 21:51:14;;;;;;;;;;;;;;;;;;12640351;28;19975;-78
2022/10/04 21:57:16;;;;;;;;;;;;;;;;;;12638677;28;20361;-78
2022/10/04 22:03:18;;;;;;;;;;;;;;;;;;12621657;28;19912;-77
2022/10/04 22:09:20;;;;;;;;;;;;;;;;;;12621139;28;20336;-77
2022/10/04 22:15:22;;;;;;;;;;;;;;;;;;12620224;28;19908;-78
2022/10/04 22:21:24;;;;;;;;;;;;;;;;;;12639795;28;19916;-79
2022/10/04 22:27:25;;;;;;;;;;;;;;;;;;12638089;28;19915;-78
2022/10/04 22:33:27;;;;;;;;;;;;;;;;;;12620200;28;20372;-78
2022/10/04 22:39:29;;;;;;;;;;;;;;;;;;12620846;28;20007;-78
2022/10/04 22:45:33;;;;;;;;;;;;;;;;;;12620044;28;19999;-79
2022/10/04 22:51:35;;;;;;;;;;;;;;;;;;12638406;28;19932;-78
2022/10/04 22:57:36;;;;;;;;;;;;;;;;;;12637994;28;19916;-79
2022/10/04 23:03:38;;;;;;;;;;;;;;;;;;12636920;28;19908;-79
2022/10/04 23:09:40;;;;;;;;;;;;;;;;;;12636877;28;19963;-79
2022/10/04 23:15:42;;;;;;;;;;;;;;;;;;12638022;28;20575;-78
2022/10/04 23:21:43;;;;;;;;;;;;;;;;;;12637867;28;19908;-79
2022/10/04 23:27:45;;;;;;;;;;;;;;;;;;12638767;28;19908;-79
2022/10/04 23:33:46;;;;;;;;;;;;;;;;;;12637766;28;19907;-78
2022/10/04 23:39:48;;;;;;;;;;;;;;;;;;12636133;28;19916;-79
2022/10/04 23:45:49;;;;;;;;;;;;;;;;;;12617525;28;20206;-79
2022/10/04 23:51:51;;;;;;;;;;;;;;;;;;12634817;28;20264;-79
2022/10/04 23:57:53;;;;;;;;;;;;;;;;;;12617390;28;19923;-79
